Time;durP1;ratioP1;P1;durP2;ratioP2;P2;SDS_P1;SDS_P2;PMS_P1;PMS_P2;Temp;Humidity;BMP_temperature;BMP_pressure;BME280_temperature;BME280_humidity;BME280_pressure;Samples;Min_cycle;Max_cycle;Signal;HPM_P1;HPM_P2
2023/07/26 00:00:11;;;;;;;18.42;17.15;;;;;;;21.48;59.64;99076.53;4989037;28;97001;-87
2023/07/26 00:02:39;;;;;;;18.33;17.08;;;;;;;21.46;59.72;99078.53;4991631;28;97280;-88
2023/07/26 00:05:05;;;;;;;18.95;17.65;;;;;;;21.45;59.48;99076.03;4991286;28;98440;-87
2023/07/26 00:07:31;;;;;;;18.65;17.15;;;;;;;21.41;59.80;99098.66;4991007;28;96765;-87
2023/07/26 00:09:56;;;;;;;18.63;17.52;;;;;;;21.40;59.52;99096.97;4987514;28;96783;-85
2023/07/26 00:12:22;;;;;;;18.60;17.20;;;;;;;21.37;59.36;99103.47;4984821;28;98762;-87
2023/07/26 00:14:48;;;;;;;19.02;17.83;;;;;;;21.35;59.33;99097.41;4980315;28;98868;-87
2023/07/26 00:17:13;;;;;;;18.75;17.27;;;;;;;21.33;59.18;99096.72;4993851;28;96787;-86
2023/07/26 00:19:39;;;;;;;17.50;16.40;;;;;;;21.30;59.13;99099.69;4991589;28;96977;-88
2023/07/26 00:22:04;;;;;;;18.70;17.20;;;;;;;21.21;59.26;99095.25;4979632;28;98808;-87
2023/07/26 00:24:30;;;;;;;17.98;16.77;;;;;;;21.07;59.85;99093.94;4989621;28;98523;-87
2023/07/26 00:26:56;;;;;;;18.38;16.98;;;;;;;21.03;59.70;99100.53;4988388;28;96809;-87
2023/07/26 00:29:21;;;;;;;20.05;18.55;;;;;;;21.06;59.65;99097.59;4993899;28;96777;-86
2023/07/26 00:31:47;;;;;;;19.73;18.17;;;;;;;21.04;59.48;99104.91;4989395;28;99069;-87
2023/07/26 00:34:13;;;;;;;18.30;17.08;;;;;;;21.02;59.50;99107.69;4988709;28;99342;-87
2023/07/26 00:36:38;;;;;;;17.52;16.38;;;;;;;21.00;59.47;99114.16;4980793;28;97180;-86
2023/07/26 00:39:04;;;;;;;19.00;17.52;;;;;;;20.99;59.48;99112.50;4983837;28;96784;-86
2023/07/26 00:41:30;;;;;;;18.63;17.25;;;;;;;20.97;59.28;99120.66;4985218;28;98609;-87
2023/07/26 00:43:55;;;;;;;18.15;16.67;;;;;;;20.97;59.24;99119.81;4989355;28;98631;-87
2023/07/26 00:46:21;;;;;;;17.83;16.63;;;;;;;20.93;59.15;99118.44;4982762;28;96999;-84
2023/07/26 00:48:47;;;;;;;17.98;16.77;;;;;;;20.96;59.09;99112.78;4990306;28;97032;-87
2023/07/26 00:51:13;;;;;;;18.23;17.13;;;;;;;20.93;59.25;99108.59;4991140;28;99251;-87
2023/07/26 00:53:38;;;;;;;17.65;16.23;;;;;;;20.87;59.18;99117.19;4973816;28;98864;-87
2023/07/26 00:56:04;;;;;;;18.33;16.77;;;;;;;20.88;59.18;99123.34;4978943;28;97298;-85
2023/07/26 00:58:30;;;;;;;17.95;16.65;;;;;;;20.85;59.51;99121.81;4985422;28;96960;-87
2023/07/26 01:00:57;;;;;;;17.10;15.90;;;;;;;20.81;59.52;99131.09;4991230;28;98640;-86
2023/07/26 01:03:22;;;;;;;18.90;17.65;;;;;;;20.78;59.31;99126.06;4985920;28;97598;-86
2023/07/26 01:06:06;;;;;;;17.75;16.52;;;;;;;20.78;59.82;99131.41;4984951;28;96830;-85
2023/07/26 01:08:46;;;;;;;17.55;16.23;;;;;;;20.73;59.56;99123.81;4979109;28;97615;-87
2023/07/26 01:11:17;;;;;;;16.75;15.75;;;;;;;20.72;59.28;99124.00;4989881;28;97459;-85
2023/07/26 01:13:51;;;;;;;18.73;17.40;;;;;;;20.69;59.42;99121.63;4991010;28;98399;-87
2023/07/26 01:16:16;;;;;;;17.42;16.33;;;;;;;20.69;59.22;99135.78;4979081;28;97056;-87
2023/07/26 01:18:42;;;;;;;17.48;16.27;;;;;;;20.69;59.35;99126.94;4993378;28;96963;-87
2023/07/26 01:21:08;;;;;;;16.95;15.95;;;;;;;20.64;59.27;99119.38;4981054;28;99124;-87
2023/07/26 01:23:35;;;;;;;17.33;16.25;;;;;;;20.67;59.01;99113.75;4991747;28;98226;-88
2023/07/26 01:26:01;;;;;;;17.20;16.02;;;;;;;20.63;58.91;99117.72;4988317;28;96905;-87
2023/07/26 01:28:26;;;;;;;18.23;17.05;;;;;;;20.59;58.97;99118.97;4989032;28;96923;-86
2023/07/26 01:30:53;;;;;;;17.67;16.42;;;;;;;20.60;58.79;99127.81;4985654;28;99056;-88
2023/07/26 01:33:20;;;;;;;17.67;16.58;;;;;;;20.55;58.78;99137.06;4986711;28;98482;-88
2023/07/26 01:35:47;;;;;;;18.35;17.00;;;;;;;20.53;58.83;99143.53;4965940;28;96746;-87
2023/07/26 01:38:13;;;;;;;18.05;16.85;;;;;;;20.47;58.75;99134.25;4982370;28;96985;-87
2023/07/26 01:40:39;;;;;;;16.98;15.88;;;;;;;20.45;59.38;99141.56;4993166;28;97635;-85
2023/07/26 01:43:04;;;;;;;17.65;16.55;;;;;;;20.48;59.29;99138.63;4984961;28;100076;-87
2023/07/26 01:45:30;;;;;;;18.27;17.10;;;;;;;20.48;59.38;99140.44;4972293;28;96776;-87
2023/07/26 01:47:56;;;;;;;19.02;17.52;;;;;;;20.44;59.49;99141.72;4972348;28;96853;-88
2023/07/26 01:50:22;;;;;;;17.98;16.85;;;;;;;20.42;59.28;99144.53;4973237;28;98898;-88
2023/07/26 01:52:48;;;;;;;17.05;15.90;;;;;;;20.42;59.42;99151.66;4986885;28;98276;-88
2023/07/26 01:55:14;;;;;;;17.38;16.27;;;;;;;20.39;59.63;99150.16;4996716;28;97229;-88
2023/07/26 01:57:39;;;;;;;19.05;17.65;;;;;;;20.36;59.49;99142.41;4990031;28;97239;-88
2023/07/26 02:00:06;;;;;;;19.77;18.23;;;;;;;20.33;59.45;99146.22;4996337;28;100936;-87
2023/07/26 02:02:38;;;;;;;18.52;17.13;;;;;;;20.35;59.42;99140.75;4984613;28;97018;-88
2023/07/26 02:05:04;;;;;;;17.90;16.80;;;;;;;20.34;59.48;99150.56;4990338;28;97268;-87
2023/07/26 02:07:30;;;;;;;19.50;17.73;;;;;;;20.33;59.24;99140.03;4993378;28;97256;-86
2023/07/26 02:09:56;;;;;;;17.55;16.45;;;;;;;20.30;59.42;99141.19;4994849;28;97766;-88
2023/07/26 02:12:21;;;;;;;18.45;17.05;;;;;;;20.28;59.27;99132.50;4992176;28;98929;-87
2023/07/26 02:14:47;;;;;;;17.67;16.48;;;;;;;20.23;59.48;99136.56;4984510;28;97092;-89
2023/07/26 02:17:13;;;;;;;17.73;16.45;;;;;;;20.18;59.42;99136.97;4994869;28;96689;-88
2023/07/26 02:19:38;;;;;;;17.02;15.93;;;;;;;20.22;59.29;99149.03;4992194;28;98704;-88
2023/07/26 02:22:04;;;;;;;17.95;16.75;;;;;;;20.20;59.09;99142.19;4993723;28;98865;-88
2023/07/26 02:24:30;;;;;;;17.45;16.35;;;;;;;20.24;59.26;99146.22;4988515;28;97347;-87
2023/07/26 02:26:55;;;;;;;17.42;16.33;;;;;;;20.20;59.36;99153.66;4995406;28;96804;-88
2023/07/26 02:29:21;;;;;;;17.67;16.58;;;;;;;20.19;59.70;99159.13;4981443;28;100624;-87
2023/07/26 02:31:47;;;;;;;18.95;17.30;;;;;;;20.13;59.72;99160.56;4988084;28;99014;-88
2023/07/26 02:34:13;;;;;;;18.15;16.95;;;;;;;20.13;59.48;99166.72;4982583;28;97712;-88
2023/07/26 02:36:40;;;;;;;18.15;16.90;;;;;;;20.13;59.78;99177.38;4982969;28;97158;-87
2023/07/26 02:39:05;;;;;;;19.13;17.75;;;;;;;20.10;59.89;99177.66;4992972;28;98595;-88
2023/07/26 02:41:31;;;;;;;18.27;17.05;;;;;;;20.07;60.10;99171.75;4985009;28;98326;-87
2023/07/26 02:43:57;;;;;;;17.33;16.23;;;;;;;20.07;59.97;99169.94;4977002;28;97151;-87
2023/07/26 02:46:22;;;;;;;18.35;17.05;;;;;;;20.05;60.21;99179.06;4984017;28;96793;-87
2023/07/26 02:48:48;;;;;;;19.10;17.80;;;;;;;20.05;60.14;99185.22;4980661;28;100823;-87
2023/07/26 02:51:13;;;;;;;19.00;17.70;;;;;;;20.02;60.45;99184.66;4983772;28;98747;-87
2023/07/26 02:53:39;;;;;;;19.25;17.80;;;;;;;20.00;60.62;99187.47;4994345;28;96572;-86
2023/07/26 02:56:05;;;;;;;18.20;16.92;;;;;;;20.02;60.63;99193.50;4994671;28;96947;-87
2023/07/26 02:58:31;;;;;;;18.83;17.33;;;;;;;19.99;60.97;99198.28;4994871;28;98739;-84
2023/07/26 03:00:57;;;;;;;19.10;17.83;;;;;;;19.98;61.05;99193.91;4991695;28;98421;-88
2023/07/26 03:03:22;;;;;;;20.05;18.65;;;;;;;19.98;61.18;99196.56;4986515;28;96678;-86
2023/07/26 03:05:48;;;;;;;17.60;16.58;;;;;;;19.95;60.91;99196.84;4994091;28;96792;-84
2023/07/26 03:08:14;;;;;;;19.98;18.52;;;;;;;19.93;61.15;99199.66;4984186;28;99069;-86
2023/07/26 03:10:39;;;;;;;19.77;18.30;;;;;;;19.97;61.06;99206.38;4984588;28;98310;-85
2023/07/26 03:13:05;;;;;;;19.02;17.73;;;;;;;19.94;61.21;99200.50;4980019;28;96972;-86
2023/07/26 03:15:31;;;;;;;20.00;18.38;;;;;;;19.96;61.12;99217.19;4985327;28;97162;-86
2023/07/26 03:17:56;;;;;;;19.50;18.10;;;;;;;19.92;61.14;99219.25;4988974;28;98975;-86
2023/07/26 03:20:22;;;;;;;20.90;19.38;;;;;;;19.87;61.54;99226.84;4973617;28;98455;-85
2023/07/26 03:22:48;;;;;;;20.88;19.13;;;;;;;19.85;61.71;99221.66;4976292;28;96797;-85
2023/07/26 03:25:14;;;;;;;20.75;19.05;;;;;;;19.84;61.62;99230.63;4988711;28;97019;-86
2023/07/26 03:27:39;;;;;;;20.17;18.77;;;;;;;19.80;61.74;99233.69;4974016;28;97585;-85
2023/07/26 03:30:05;;;;;;;20.85;19.38;;;;;;;19.76;61.94;99230.47;4984263;28;98314;-85
2023/07/26 03:32:31;;;;;;;20.45;18.60;;;;;;;19.75;61.86;99238.56;4984288;28;96996;-86
2023/07/26 03:34:57;;;;;;;19.67;18.38;;;;;;;19.74;62.00;99236.91;4986799;28;96952;-86
2023/07/26 03:37:22;;;;;;;20.30;18.90;;;;;;;19.72;61.91;99244.16;4976028;28;98905;-86
2023/07/26 03:39:48;;;;;;;21.17;19.27;;;;;;;19.68;62.23;99239.13;4980170;28;99741;-86
2023/07/26 03:42:13;;;;;;;20.27;18.67;;;;;;;19.69;62.17;99247.94;4976208;28;97451;-86
2023/07/26 03:44:39;;;;;;;19.27;17.73;;;;;;;19.73;61.94;99251.19;4984862;28;97221;-86
2023/07/26 03:47:05;;;;;;;20.63;18.98;;;;;;;19.72;62.18;99250.34;4988209;28;98527;-87
2023/07/26 03:49:31;;;;;;;20.05;18.65;;;;;;;19.73;62.34;99259.19;4973745;28;98690;-86
2023/07/26 03:51:56;;;;;;;20.42;19.00;;;;;;;19.71;62.16;99261.13;4986439;28;96642;-86
2023/07/26 03:54:22;;;;;;;21.35;19.67;;;;;;;19.67;62.26;99264.06;4973964;28;96715;-86
2023/07/26 03:56:48;;;;;;;19.80;18.50;;;;;;;19.68;62.46;99267.56;4976401;28;97540;-86
2023/07/26 03:59:13;;;;;;;20.67;19.17;;;;;;;19.71;62.62;99271.78;4987887;28;99528;-86
2023/07/26 04:01:39;;;;;;;21.23;19.50;;;;;;;19.67;62.27;99272.06;4985215;28;97276;-86
2023/07/26 04:04:05;;;;;;;19.98;18.67;;;;;;;19.64;62.32;99276.78;4993330;28;96993;-86
2023/07/26 04:06:31;;;;;;;19.63;18.08;;;;;;;19.66;62.42;99277.50;4990377;28;99126;-86
2023/07/26 04:08:57;;;;;;;21.33;19.80;;;;;;;19.64;62.43;99280.28;4978798;28;100131;-86
2023/07/26 04:11:22;;;;;;;20.38;18.50;;;;;;;19.65;62.56;99281.16;4993382;28;96844;-86
2023/07/26 04:13:48;;;;;;;20.88;19.08;;;;;;;19.65;62.72;99286.47;4993333;28;96821;-86
2023/07/26 04:16:15;;;;;;;19.40;18.08;;;;;;;19.64;62.57;99290.09;4991672;28;98091;-87
2023/07/26 04:18:41;;;;;;;20.88;19.48;;;;;;;19.62;62.95;99294.69;4993909;28;98957;-86
2023/07/26 04:21:08;;;;;;;21.38;19.67;;;;;;;19.64;62.62;99293.59;4995343;28;96695;-85
2023/07/26 04:23:34;;;;;;;20.92;19.35;;;;;;;19.64;62.88;99306.06;4989567;28;96829;-86
2023/07/26 04:25:59;;;;;;;20.88;19.35;;;;;;;19.64;62.76;99300.75;4980691;28;98664;-86
2023/07/26 04:28:25;;;;;;;22.33;20.83;;;;;;;19.65;62.77;99305.94;4990481;28;98747;-85
2023/07/26 04:30:51;;;;;;;22.35;20.30;;;;;;;19.66;62.52;99312.09;4985920;28;97142;-86
2023/07/26 04:33:17;;;;;;;21.23;19.48;;;;;;;19.61;62.90;99301.00;4988384;28;98285;-85
2023/07/26 04:35:44;;;;;;;22.63;20.85;;;;;;;19.64;63.11;99311.38;4988962;28;99000;-86
2023/07/26 04:38:11;;;;;;;21.25;19.75;;;;;;;19.60;62.98;99310.78;4991244;28;97378;-85
2023/07/26 04:40:37;;;;;;;19.88;18.45;;;;;;;19.65;63.08;99321.09;4977057;28;97103;-87
2023/07/26 04:43:03;;;;;;;20.92;19.13;;;;;;;19.63;62.97;99320.34;4993301;28;96951;-87
2023/07/26 04:45:30;;;;;;;21.40;19.75;;;;;;;19.62;63.09;99318.66;4986248;28;99068;-86
2023/07/26 04:47:56;;;;;;;20.55;19.13;;;;;;;19.63;63.11;99323.88;4987444;28;98650;-86
2023/07/26 04:50:21;;;;;;;21.30;19.55;;;;;;;19.64;63.08;99324.69;4983719;28;96658;-87
2023/07/26 04:52:47;;;;;;;20.33;18.80;;;;;;;19.64;62.95;99333.53;4985544;28;96846;-86
2023/07/26 04:55:13;;;;;;;19.35;18.05;;;;;;;19.63;63.04;99323.88;4983406;28;99060;-87
2023/07/26 04:57:39;;;;;;;21.13;19.20;;;;;;;19.63;63.04;99323.00;4985710;28;98515;-87
2023/07/26 05:00:07;;;;;;;21.17;19.67;;;;;;;19.58;63.15;99317.25;4986546;28;97071;-86
2023/07/26 05:02:32;;;;;;;20.40;18.83;;;;;;;19.56;63.33;99324.53;4984005;28;97348;-86
2023/07/26 05:04:58;;;;;;;20.27;18.73;;;;;;;19.58;63.33;99330.56;4984569;28;98962;-86
2023/07/26 05:07:24;;;;;;;20.48;19.08;;;;;;;19.58;63.16;99338.56;4983921;28;98307;-89
2023/07/26 05:09:49;;;;;;;20.50;18.42;;;;;;;19.56;63.07;99336.00;4984571;28;96937;-88
2023/07/26 05:12:15;;;;;;;20.10;18.65;;;;;;;19.52;63.46;99339.06;4975662;28;97212;-88
2023/07/26 05:14:43;;;;;;;19.55;18.20;;;;;;;19.47;63.28;99341.28;4975556;28;97829;-88
2023/07/26 05:17:08;;;;;;;19.25;17.95;;;;;;;19.49;63.32;99341.97;4976218;28;98809;-86
2023/07/26 05:19:34;;;;;;;19.70;18.30;;;;;;;19.50;63.32;99343.69;4981497;28;96739;-85
2023/07/26 05:22:00;;;;;;;20.50;18.88;;;;;;;19.48;63.42;99342.97;4979204;28;97294;-85
2023/07/26 05:24:25;;;;;;;19.48;18.13;;;;;;;19.52;63.40;99347.03;4971454;28;99011;-86
2023/07/26 05:26:51;;;;;;;21.02;19.55;;;;;;;19.55;63.40;99357.44;4971312;28;98822;-85
2023/07/26 05:29:16;;;;;;;20.27;18.98;;;;;;;19.52;63.61;99353.22;4979378;28;98273;-85
2023/07/26 05:31:42;;;;;;;20.20;18.58;;;;;;;19.49;63.46;99353.50;4991058;28;96961;-85
2023/07/26 05:34:08;;;;;;;19.60;18.05;;;;;;;19.44;63.75;99364.53;4983100;28;98997;-85
2023/07/26 05:36:34;;;;;;;21.35;19.67;;;;;;;19.47;63.83;99375.88;4980766;28;98508;-85
2023/07/26 05:38:59;;;;;;;19.60;18.20;;;;;;;19.48;63.60;99373.06;4972789;28;96820;-86
2023/07/26 05:41:26;;;;;;;18.63;17.27;;;;;;;19.48;63.72;99374.91;4979113;28;97319;-85
2023/07/26 05:43:52;;;;;;;19.15;17.75;;;;;;;19.51;63.77;99383.47;4975143;28;97790;-87
2023/07/26 05:46:18;;;;;;;19.58;18.17;;;;;;;19.52;63.57;99376.31;4975605;28;98825;-86
2023/07/26 05:48:44;;;;;;;18.77;17.30;;;;;;;19.49;63.60;99376.56;4975711;28;96844;-86
2023/07/26 05:51:09;;;;;;;18.90;17.60;;;;;;;19.51;63.64;99374.63;4976508;28;96845;-86
2023/07/26 05:53:36;;;;;;;19.55;17.95;;;;;;;19.52;63.86;99378.97;4977662;28;98504;-85
2023/07/26 05:56:02;;;;;;;20.95;18.90;;;;;;;19.48;63.71;99386.38;4970782;28;99069;-86
2023/07/26 05:58:28;;;;;;;20.77;18.92;;;;;;;19.49;63.81;99392.53;4988031;28;96690;-86
2023/07/26 06:00:53;;;;;;;21.55;19.45;;;;;;;19.52;63.88;99398.47;4987110;28;96791;-86
2023/07/26 06:03:19;;;;;;;21.30;19.10;;;;;;;19.53;64.05;99404.63;4970467;28;98964;-85
2023/07/26 06:05:45;;;;;;;23.10;19.70;;;;;;;19.46;64.08;99399.00;4972431;28;98387;-86
2023/07/26 06:08:10;;;;;;;20.98;19.27;;;;;;;19.49;64.21;99406.72;4981597;28;96990;-85
2023/07/26 06:10:36;;;;;;;20.77;19.00;;;;;;;19.48;64.16;99415.66;4987339;28;97306;-86
2023/07/26 06:13:02;;;;;;;21.27;19.40;;;;;;;19.52;64.04;99417.09;4987391;28;98992;-85
2023/07/26 06:15:27;;;;;;;20.63;18.92;;;;;;;19.52;63.80;99417.09;4979602;28;98265;-85
2023/07/26 06:17:53;;;;;;;20.17;18.52;;;;;;;19.51;63.78;99422.53;4974520;28;96780;-86
2023/07/26 06:20:19;;;;;;;19.30;17.75;;;;;;;19.54;63.88;99427.59;4978889;28;97258;-85
2023/07/26 06:22:44;;;;;;;19.65;18.15;;;;;;;19.53;64.03;99421.44;4975021;28;97947;-85
2023/07/26 06:25:10;;;;;;;20.15;18.48;;;;;;;19.56;63.96;99431.81;4986642;28;98781;-88
2023/07/26 06:27:35;;;;;;;20.10;18.70;;;;;;;19.53;63.97;99428.59;4985112;28;97116;-86
2023/07/26 06:30:01;;;;;;;19.58;18.20;;;;;;;19.55;64.11;99439.97;4978453;28;96935;-75
2023/07/26 06:32:27;;;;;;;19.65;18.13;;;;;;;19.56;64.26;99438.97;4969714;28;98830;-75
2023/07/26 06:34:52;;;;;;;20.60;18.75;;;;;;;19.57;64.08;99443.31;4970182;28;97997;-76
2023/07/26 06:37:18;;;;;;;20.60;18.92;;;;;;;19.59;64.15;99438.72;4972772;28;96795;-74
2023/07/26 06:39:44;;;;;;;19.00;17.80;;;;;;;19.60;64.02;99435.91;4973810;28;97584;-75
2023/07/26 06:42:09;;;;;;;19.10;17.80;;;;;;;19.62;63.83;99441.09;4972929;28;98729;-75
2023/07/26 06:44:35;;;;;;;19.75;18.23;;;;;;;19.62;63.92;99444.59;4974934;28;98616;-75
2023/07/26 06:47:01;;;;;;;19.15;17.73;;;;;;;19.66;63.91;99447.88;4973691;28;97321;-76
2023/07/26 06:49:26;;;;;;;19.90;18.60;;;;;;;19.67;64.01;99442.44;4975021;28;96857;-75
2023/07/26 06:51:52;;;;;;;19.55;18.13;;;;;;;19.67;64.14;99452.25;4973449;28;98641;-76
2023/07/26 06:54:17;;;;;;;20.42;19.02;;;;;;;19.67;64.02;99453.09;4973630;28;98890;-76
2023/07/26 06:56:43;;;;;;;19.73;18.50;;;;;;;19.67;64.00;99452.25;4973667;28;97277;-76
2023/07/26 06:59:12;;;;;;;19.65;18.30;;;;;;;19.72;63.77;99463.31;4973925;28;96960;-76
2023/07/26 07:01:38;;;;;;;19.33;17.92;;;;;;;19.70;63.96;99462.63;4972638;28;99044;-75
2023/07/26 07:04:04;;;;;;;19.63;18.33;;;;;;;19.73;63.92;99464.19;4972844;28;98508;-75
2023/07/26 07:06:29;;;;;;;20.75;19.35;;;;;;;19.74;64.02;99465.88;4974054;28;97556;-74
2023/07/26 07:08:55;;;;;;;20.10;18.73;;;;;;;19.72;64.03;99471.31;4982930;28;98526;-76
2023/07/26 07:11:21;;;;;;;18.92;17.63;;;;;;;19.74;63.86;99465.88;4986387;28;98693;-75
2023/07/26 07:13:46;;;;;;;19.80;18.30;;;;;;;19.75;63.89;99467.53;4980725;28;98651;-76
2023/07/26 07:16:12;;;;;;;19.60;18.02;;;;;;;19.75;64.01;99465.75;4975552;28;96915;-76
2023/07/26 07:18:37;;;;;;;20.02;18.60;;;;;;;19.76;63.96;99467.44;4973181;28;97815;-76
2023/07/26 07:21:03;;;;;;;19.38;17.95;;;;;;;19.75;64.13;99471.06;4973422;28;99051;-75
2023/07/26 07:23:29;;;;;;;19.67;18.23;;;;;;;19.75;64.21;99480.84;4972406;28;98537;-75
2023/07/26 07:25:56;;;;;;;20.17;18.80;;;;;;;19.73;63.74;99481.00;4972379;28;97221;-77
2023/07/26 07:28:21;;;;;;;20.23;18.73;;;;;;;19.76;63.60;99491.38;4974840;28;96720;-77
2023/07/26 07:30:47;;;;;;;20.98;19.20;;;;;;;19.74;63.86;99489.81;4972090;28;99079;-76
2023/07/26 07:33:12;;;;;;;20.95;19.27;;;;;;;19.76;63.82;99490.56;4971567;28;98285;-78
2023/07/26 07:35:39;;;;;;;19.40;18.02;;;;;;;19.74;63.87;99493.31;4983193;28;97054;-76
2023/07/26 07:38:05;;;;;;;20.90;19.27;;;;;;;19.76;63.66;99494.06;4973304;28;97452;-76
2023/07/26 07:40:30;;;;;;;21.80;20.23;;;;;;;19.77;63.93;99495.72;4981375;28;98693;-75
2023/07/26 07:42:56;;;;;;;21.02;19.52;;;;;;;19.80;63.71;99495.47;4974302;28;98268;-76
2023/07/26 07:45:22;;;;;;;21.35;19.80;;;;;;;19.83;63.80;99494.38;4970282;28;97604;-76
2023/07/26 07:47:47;;;;;;;20.33;18.83;;;;;;;19.85;63.66;99497.75;4969898;28;96877;-75
2023/07/26 07:50:13;;;;;;;21.52;19.83;;;;;;;19.89;63.10;99493.84;4970030;28;100510;-75
2023/07/26 07:52:38;;;;;;;20.88;19.55;;;;;;;19.92;63.57;99476.75;4981892;28;98218;-75
2023/07/26 07:55:04;;;;;;;22.25;20.63;;;;;;;19.97;63.57;99485.19;4969999;28;96655;-76
2023/07/26 07:57:30;;;;;;;21.30;19.70;;;;;;;19.99;63.57;99478.75;4972042;28;97897;-74
2023/07/26 07:59:56;;;;;;;20.63;18.92;;;;;;;20.02;63.74;99485.66;4970847;28;98581;-75
2023/07/26 08:02:21;;;;;;;20.67;19.20;;;;;;;20.06;63.45;99482.56;4971437;28;98812;-75
2023/07/26 08:04:47;;;;;;;20.60;19.20;;;;;;;20.10;63.56;99491.13;4969668;28;97359;-75
2023/07/26 08:07:13;;;;;;;19.90;18.50;;;;;;;20.18;63.58;99491.31;4971020;28;96872;-75
2023/07/26 08:09:41;;;;;;;21.05;19.42;;;;;;;20.31;63.25;99488.44;4973332;28;99029;-76
2023/07/26 08:12:07;;;;;;;20.25;18.95;;;;;;;20.43;62.84;99489.19;4980441;28;98751;-75
2023/07/26 08:14:33;;;;;;;21.00;19.45;;;;;;;20.51;62.73;99503.53;4981972;28;97300;-75
2023/07/26 08:16:58;;;;;;;21.00;19.48;;;;;;;20.55;62.29;99502.28;4978145;28;96863;-75
2023/07/26 08:19:24;;;;;;;20.65;19.13;;;;;;;20.56;62.33;99498.63;4975733;28;99080;-74
2023/07/26 08:21:49;;;;;;;20.70;19.20;;;;;;;20.58;62.26;99511.84;4973396;28;98146;-75
2023/07/26 08:24:15;;;;;;;19.38;18.10;;;;;;;20.62;62.16;99512.41;4971876;28;97640;-74
2023/07/26 08:26:41;;;;;;;21.13;19.42;;;;;;;20.63;61.81;99516.78;4979774;28;96864;-74
2023/07/26 08:29:06;;;;;;;21.05;19.40;;;;;;;20.63;61.96;99517.63;4981590;28;98995;-74
2023/07/26 08:31:32;;;;;;;21.13;19.45;;;;;;;20.63;62.12;99522.94;4976047;28;98631;-75
2023/07/26 08:33:58;;;;;;;20.13;18.75;;;;;;;20.58;62.13;99531.34;4975796;28;96673;-74
2023/07/26 08:36:24;;;;;;;19.35;17.98;;;;;;;20.56;62.33;99537.78;4981726;28;96853;-74
2023/07/26 08:38:49;;;;;;;20.90;19.20;;;;;;;20.60;62.02;99536.56;4982963;28;99045;-74
2023/07/26 08:41:15;;;;;;;20.17;18.83;;;;;;;20.69;62.04;99535.75;4972274;28;98601;-74
2023/07/26 08:43:42;;;;;;;19.65;18.25;;;;;;;20.74;61.63;99540.66;4977757;28;96833;-74
2023/07/26 08:46:08;;;;;;;20.00;18.50;;;;;;;20.82;61.70;99534.63;4971782;28;96867;-74
2023/07/26 08:48:35;;;;;;;20.65;19.05;;;;;;;20.90;61.73;99524.13;4969594;28;98764;-75
2023/07/26 08:51:00;;;;;;;19.55;18.05;;;;;;;20.92;61.62;99530.19;4968338;28;98410;-75
2023/07/26 08:53:27;;;;;;;19.88;18.58;;;;;;;20.88;61.48;99544.75;4970996;28;98216;-75
2023/07/26 08:55:53;;;;;;;20.33;19.00;;;;;;;20.81;61.26;99536.47;4969943;28;97283;-76
2023/07/26 08:58:19;;;;;;;21.27;19.67;;;;;;;20.70;61.12;99545.41;4971067;28;99067;-75
2023/07/26 09:00:46;;;;;;;20.90;19.40;;;;;;;20.67;61.11;99567.03;4976388;28;98278;-75
2023/07/26 09:03:13;;;;;;;20.10;18.50;;;;;;;20.64;61.26;99561.13;4968294;28;97133;-75
2023/07/26 09:05:38;;;;;;;20.33;18.98;;;;;;;20.63;61.44;99568.28;4969550;28;97089;-75
2023/07/26 09:08:04;;;;;;;22.45;20.65;;;;;;;20.72;61.78;99566.63;4969655;28;99108;-74
2023/07/26 09:10:31;;;;;;;20.75;19.05;;;;;;;20.79;61.61;99565.09;4970501;28;98278;-75
2023/07/26 09:13:15;;;;;;;20.42;18.98;;;;;;;20.91;61.58;99561.31;4983621;28;97192;-74
2023/07/26 09:15:42;;;;;;;19.20;17.77;;;;;;;21.00;61.77;99557.88;4988886;28;97975;-74
2023/07/26 09:18:08;;;;;;;20.45;18.63;;;;;;;21.14;61.34;99559.28;4977038;28;98739;-75
2023/07/26 09:20:35;;;;;;;20.33;18.65;;;;;;;21.35;61.26;99558.31;4983601;28;98726;-75
2023/07/26 09:23:09;;;;;;;19.60;18.00;;;;;;;21.45;60.38;99564.53;4983416;28;98314;-75
2023/07/26 09:25:37;;;;;;;20.42;18.50;;;;;;;21.59;60.30;99555.28;4977394;28;96934;-74
2023/07/26 09:28:04;;;;;;;19.77;18.15;;;;;;;21.72;59.36;99546.97;4968804;28;98633;-74
2023/07/26 09:30:30;;;;;;;19.77;18.10;;;;;;;21.76;59.15;99551.00;4969304;28;98680;-75
2023/07/26 09:32:56;;;;;;;19.20;17.63;;;;;;;21.76;58.48;99551.88;4984150;28;97264;-74
2023/07/26 09:35:22;;;;;;;19.65;18.27;;;;;;;21.63;58.32;99552.16;4973713;28;96853;-74
2023/07/26 09:37:48;;;;;;;20.90;19.17;;;;;;;21.46;58.69;99553.72;4969888;28;98964;-74
2023/07/26 09:40:14;;;;;;;19.60;17.58;;;;;;;21.36;59.09;99562.69;4970160;28;98853;-74
2023/07/26 09:42:44;;;;;;;20.23;18.15;;;;;;;21.21;59.03;99567.59;4980177;28;96668;-75
2023/07/26 09:45:19;;;;;;;19.73;17.95;;;;;;;21.10;59.15;99560.53;4969579;28;96863;-74
2023/07/26 09:47:46;;;;;;;20.15;18.33;;;;;;;20.99;59.40;99566.81;4969493;28;98613;-75
2023/07/26 09:50:32;;;;;;;19.63;18.00;;;;;;;20.93;59.64;99567.38;4970185;28;98171;-75
2023/07/26 09:52:57;;;;;;;19.73;18.02;;;;;;;20.94;60.00;99563.75;4970448;28;97423;-74
2023/07/26 09:55:25;;;;;;;20.27;18.58;;;;;;;21.07;60.10;99567.97;4969952;28;96790;-75
2023/07/26 09:57:53;;;;;;;18.80;17.52;;;;;;;21.20;60.20;99565.88;4978766;28;98644;-75
2023/07/26 10:00:19;;;;;;;18.90;17.48;;;;;;;21.30;60.48;99563.25;4975685;28;98324;-75
2023/07/26 10:02:46;;;;;;;19.10;17.67;;;;;;;21.34;60.72;99560.13;4987659;28;96792;-76
2023/07/26 10:05:13;;;;;;;19.73;18.13;;;;;;;21.45;59.80;99564.53;4971540;28;97351;-76
2023/07/26 10:07:39;;;;;;;19.30;17.85;;;;;;;21.54;58.75;99549.50;4979941;28;98512;-78
2023/07/26 10:10:06;;;;;;;21.98;17.58;;;;;;;21.50;58.15;99556.09;4974650;28;98489;-77
2023/07/26 10:12:32;;;;;;;19.83;17.98;;;;;;;21.45;58.20;99560.03;4978972;28;98344;-78
2023/07/26 10:14:58;;;;;;;21.02;19.33;;;;;;;21.43;58.18;99561.16;4977191;28;96986;-77
2023/07/26 10:17:26;;;;;;;19.98;18.30;;;;;;;21.43;57.14;99567.34;4978001;28;98710;-77
2023/07/26 10:19:52;;;;;;;18.73;17.30;;;;;;;21.59;57.04;99568.63;4975175;28;98582;-77
2023/07/26 10:22:19;;;;;;;19.85;17.90;;;;;;;21.72;56.70;99571.00;4985663;28;97419;-79
2023/07/26 10:24:45;;;;;;;18.63;17.05;;;;;;;21.73;57.05;99560.19;4974115;28;97444;-76
2023/07/26 10:27:11;;;;;;;18.90;17.42;;;;;;;21.84;56.78;99561.84;4986453;28;98877;-81
2023/07/26 10:29:37;;;;;;;19.40;17.35;;;;;;;21.90;55.32;99563.94;4986366;28;98388;-81
2023/07/26 10:32:05;;;;;;;19.27;17.35;;;;;;;22.07;55.10;99563.19;4977694;28;96754;-80
2023/07/26 10:34:31;;;;;;;18.52;17.23;;;;;;;22.34;54.74;99573.16;4971968;28;97027;-80
2023/07/26 10:36:56;;;;;;;19.38;17.50;;;;;;;22.62;54.60;99559.81;4969829;28;98781;-78
2023/07/26 10:39:32;;;;;;;19.98;17.30;;;;;;;22.87;52.77;99571.66;4976479;28;100439;-79
2023/07/26 10:41:58;;;;;;;19.27;17.55;;;;;;;23.15;52.62;99572.50;4985749;28;96869;-79
2023/07/26 10:44:24;;;;;;;17.73;16.55;;;;;;;23.37;51.88;99570.41;4982617;28;96776;-79
2023/07/26 10:47:03;;;;;;;18.35;16.95;;;;;;;23.58;50.43;99570.91;4980583;28;98845;-80
2023/07/26 10:49:30;;;;;;;18.88;17.33;;;;;;;23.83;50.08;99576.53;4971784;28;98497;-80
2023/07/26 10:52:02;;;;;;;17.65;16.20;;;;;;;23.98;49.41;99566.09;4971264;28;96706;-80
2023/07/26 10:54:38;;;;;;;18.75;17.25;;;;;;;24.24;49.18;99566.94;4979495;28;96924;-79
2023/07/26 10:57:22;;;;;;;18.95;17.40;;;;;;;24.33;48.72;99565.13;4984370;28;99329;-81
2023/07/26 11:00:00;;;;;;;18.27;16.83;;;;;;;24.30;47.92;99568.16;4983127;28;99042;-78
2023/07/26 11:02:44;;;;;;;17.23;16.00;;;;;;;24.17;47.47;99565.88;4974157;28;97213;-78
2023/07/26 11:05:16;;;;;;;17.88;16.40;;;;;;;24.12;46.63;99578.94;4977762;28;97154;-77
2023/07/26 11:08:01;;;;;;;17.15;15.98;;;;;;;23.97;46.48;99578.66;4975566;28;99442;-77
2023/07/26 11:10:29;;;;;;;18.10;16.70;;;;;;;23.97;46.28;99575.97;4984298;28;98538;-77
2023/07/26 11:13:07;;;;;;;23.02;17.02;;;;;;;23.90;46.85;99580.25;4980660;28;98126;-79